Time;durP1;ratioP1;P1;durP2;ratioP2;P2;SDS_P1;SDS_P2;PMS_P1;PMS_P2;Temp;Humidity;BMP_temperature;BMP_pressure;BME280_temperature;BME280_humidity;BME280_pressure;Samples;Min_cycle;Max_cycle;Signal;HPM_P1;HPM_P2
2021/09/29 00:00:34;;;;;;;;;;;;;;;22.04;61.25;100417.97;2072051;28;20062;-39
2021/09/29 00:01:34;;;;;;;;;;;;;;;22.04;61.03;100417.09;2076514;28;19948;-39
2021/09/29 00:02:35;;;;;;;;;;;;;;;22.04;61.27;100411.63;2073818;28;19920;-39
2021/09/29 00:03:36;;;;;;;;;;;;;;;22.04;61.16;100412.47;2074117;28;20242;-39
2021/09/29 00:04:36;;;;;;;;;;;;;;;22.04;61.11;100414.38;2078083;28;19967;-39
2021/09/29 00:05:39;;;;;;;;;;;;;;;22.04;61.22;100422.59;2063292;28;20437;-39
2021/09/29 00:06:39;;;;;;;;;;;;;;;22.04;61.12;100419.84;2067488;28;19917;-39
2021/09/29 00:07:39;;;;;;;;;;;;;;;22.04;61.02;100422.59;2075271;28;19920;-39
2021/09/29 00:08:39;;;;;;;;;;;;;;;22.04;61.14;100417.97;2072600;28;19905;-39
2021/09/29 00:09:40;;;;;;;;;;;;;;;22.03;61.07;100420.88;2076837;28;20015;-40
2021/09/29 00:10:41;;;;;;;;;;;;;;;22.03;61.46;100421.75;2076514;28;20334;-39
2021/09/29 00:11:41;;;;;;;;;;;;;;;22.03;61.35;100420.88;2072168;28;19924;-40
2021/09/29 00:12:42;;;;;;;;;;;;;;;22.02;61.24;100424.63;2071105;28;19921;-39
2021/09/29 00:13:42;;;;;;;;;;;;;;;22.02;61.26;100425.53;2072930;28;19923;-39
2021/09/29 00:14:42;;;;;;;;;;;;;;;22.03;61.46;100424.50;2071311;28;20137;-39
2021/09/29 00:15:42;;;;;;;;;;;;;;;22.03;61.35;100415.41;2072165;28;19917;-39
2021/09/29 00:16:43;;;;;;;;;;;;;;;22.02;61.43;100420.03;2067728;28;20653;-39
2021/09/29 00:17:44;;;;;;;;;;;;;;;22.03;61.23;100415.41;2068492;28;19951;-39
2021/09/29 00:18:45;;;;;;;;;;;;;;;22.02;61.45;100408.16;2074947;28;19913;-39
2021/09/29 00:19:45;;;;;;;;;;;;;;;22.02;61.50;100408.16;2071310;28;20247;-39
2021/09/29 00:20:46;;;;;;;;;;;;;;;22.02;61.46;100413.66;2070292;28;19927;-39
2021/09/29 00:21:46;;;;;;;;;;;;;;;22.02;61.58;100414.53;2073554;28;19912;-39
2021/09/29 00:22:47;;;;;;;;;;;;;;;22.02;61.28;100413.66;2070516;28;19925;-39
2021/09/29 00:23:48;;;;;;;;;;;;;;;22.02;61.53;100416.41;2067901;28;20323;-39
2021/09/29 00:24:48;;;;;;;;;;;;;;;22.03;61.37;100415.41;2069446;28;19928;-39
2021/09/29 00:25:48;;;;;;;;;;;;;;;22.02;61.50;100414.53;2077292;28;19912;-39
2021/09/29 00:26:48;;;;;;;;;;;;;;;22.02;61.61;100410.91;2075385;28;20007;-40
2021/09/29 00:27:49;;;;;;;;;;;;;;;22.01;61.38;100406.47;2074191;28;20390;-40
2021/09/29 00:28:49;;;;;;;;;;;;;;;22.02;61.28;100406.31;2068358;28;20310;-40
2021/09/29 00:29:51;;;;;;;;;;;;;;;22.02;61.44;100410.91;2066413;28;19956;-39
2021/09/29 00:31:52;;;;;;;;;;;;;;;22.02;61.59;100413.66;2073997;28;20267;-40
2021/09/29 00:32:21;;;;;;;;;;;;;;;22.02;61.35;100413.66;2056015;28;19917;-40
2021/09/29 00:33:21;;;;;;;;;;;;;;;22.02;61.42;100410.91;2072547;28;19909;-40
2021/09/29 00:34:32;;;;;;;;;;;;;;;22.02;61.31;100416.41;2076295;28;19999;-40
2021/09/29 00:35:33;;;;;;;;;;;;;;;22.00;61.34;100426.72;2072483;28;20035;-40
2021/09/29 00:36:34;;;;;;;;;;;;;;;22.01;61.36;100423.78;2077181;28;20322;-39
2021/09/29 00:37:34;;;;;;;;;;;;;;;22.01;61.38;100421.03;2072286;28;19959;-40
2021/09/29 00:38:35;;;;;;;;;;;;;;;22.02;61.53;100419.16;2076185;28;19928;-40
2021/09/29 00:39:35;;;;;;;;;;;;;;;22.02;61.46;100419.16;2069094;28;19992;-39
2021/09/29 00:40:36;;;;;;;;;;;;;;;22.01;61.48;100422.94;2075683;28;19924;-40
2021/09/29 00:41:37;;;;;;;;;;;;;;;22.01;61.57;100417.44;2072858;28;19970;-39
2021/09/29 00:42:37;;;;;;;;;;;;;;;22.01;61.59;100420.19;2072960;28;19921;-40
2021/09/29 00:43:37;;;;;;;;;;;;;;;22.01;61.48;100418.28;2070920;28;20049;-40
2021/09/29 00:44:38;;;;;;;;;;;;;;;22.01;61.57;100417.44;2070369;28;19939;-40
2021/09/29 00:45:38;;;;;;;;;;;;;;;22.01;61.46;100414.69;2068773;28;19917;-40
2021/09/29 00:46:39;;;;;;;;;;;;;;;22.01;61.62;100420.19;2074011;28;19928;-39
2021/09/29 00:47:39;;;;;;;;;;;;;;;22.02;61.68;100419.16;2075836;28;19913;-40
2021/09/29 00:48:40;;;;;;;;;;;;;;;22.01;61.51;100429.28;2070558;28;19936;-40
2021/09/29 00:49:40;;;;;;;;;;;;;;;22.01;61.63;100422.94;2063192;28;19948;-40
2021/09/29 00:50:41;;;;;;;;;;;;;;;22.01;61.45;100422.94;2058199;28;19921;-40
2021/09/29 00:51:41;;;;;;;;;;;;;;;22.01;61.35;100431.16;2058261;28;19917;-40
2021/09/29 00:52:42;;;;;;;;;;;;;;;22.01;61.56;100432.03;2068184;28;20280;-40
2021/09/29 00:53:45;;;;;;;;;;;;;;;22.00;61.32;100435.81;2073298;28;19936;-40
2021/09/29 00:54:45;;;;;;;;;;;;;;;22.00;61.61;100433.06;2075008;28;20269;-40
2021/09/29 00:55:46;;;;;;;;;;;;;;;22.02;61.46;100435.63;2077287;28;19905;-40
2021/09/29 00:56:46;;;;;;;;;;;;;;;22.01;61.71;100434.75;2070820;28;19913;-40
2021/09/29 00:57:46;;;;;;;;;;;;;;;22.01;61.68;100439.41;2076027;28;19982;-40
2021/09/29 00:58:47;;;;;;;;;;;;;;;22.00;61.57;100433.06;2070965;28;20002;-40
2021/09/29 00:59:47;;;;;;;;;;;;;;;22.01;61.49;100439.41;2072749;28;19923;-39
2021/09/29 01:00:48;;;;;;;;;;;;;;;22.00;61.73;100443.19;2078780;28;20254;-40
2021/09/29 01:01:48;;;;;;;;;;;;;;;22.00;61.40;100444.03;2071963;28;19952;-40
2021/09/29 01:02:49;;;;;;;;;;;;;;;22.02;61.76;100452.09;2069640;28;19959;-39
2021/09/29 01:03:49;;;;;;;;;;;;;;;22.01;61.68;100447.63;2077531;28;20075;-39
2021/09/29 01:04:50;;;;;;;;;;;;;;;22.00;61.49;100448.66;2075185;28;20386;-40
2021/09/29 01:05:52;;;;;;;;;;;;;;;22.00;61.57;100443.19;2069951;28;19966;-39
2021/09/29 01:06:52;;;;;;;;;;;;;;;22.01;61.83;100450.38;2076047;28;19925;-40
2021/09/29 01:08:11;;;;;;;;;;;;;;;22.00;61.64;100448.66;2073155;28;19929;-40
2021/09/29 01:09:19;;;;;;;;;;;;;;;22.01;61.61;100447.63;2067977;28;20023;-40
2021/09/29 01:10:34;;;;;;;;;;;;;;;21.99;61.66;100447.78;2072999;28;19928;-40
2021/09/29 01:11:39;;;;;;;;;;;;;;;22.00;61.73;100446.78;2073707;28;20234;-40
2021/09/29 01:12:48;;;;;;;;;;;;;;;22.00;61.79;100443.19;2073955;28;20179;-40
2021/09/29 01:14:02;;;;;;;;;;;;;;;22.00;61.51;100454.16;2077079;28;20203;-40
2021/09/29 01:15:11;;;;;;;;;;;;;;;21.99;61.67;100447.78;2073613;28;20347;-40
2021/09/29 01:16:13;;;;;;;;;;;;;;;22.00;61.87;100454.16;2070874;28;19913;-40
2021/09/29 01:17:15;;;;;;;;;;;;;;;22.00;61.78;100448.66;2070035;28;19918;-40
2021/09/29 01:18:19;;;;;;;;;;;;;;;22.00;61.51;100454.16;2068649;28;19924;-40
2021/09/29 01:19:38;;;;;;;;;;;;;;;22.00;61.81;100451.41;2069453;28;19917;-40
2021/09/29 01:20:47;;;;;;;;;;;;;;;21.98;61.59;100446.06;2075208;28;19920;-40
2021/09/29 01:21:50;;;;;;;;;;;;;;;21.99;61.78;100436.81;2075387;28;20317;-39
2021/09/29 01:22:51;;;;;;;;;;;;;;;21.99;61.63;100452.41;2074005;28;19944;-40
2021/09/29 01:24:15;;;;;;;;;;;;;;;21.99;61.65;100450.53;2073549;28;19920;-40
2021/09/29 01:25:34;;;;;;;;;;;;;;;22.00;61.67;100448.66;2073007;28;19917;-40
2021/09/29 01:26:36;;;;;;;;;;;;;;;21.99;61.66;100447.78;2075357;28;20467;-40
2021/09/29 01:27:36;;;;;;;;;;;;;;;21.99;61.95;100447.78;2072974;28;20411;-39
2021/09/29 01:28:39;;;;;;;;;;;;;;;22.00;61.90;100448.66;2073461;28;20283;-40
2021/09/29 01:29:40;;;;;;;;;;;;;;;21.99;61.64;100441.44;2071334;28;20665;-40
2021/09/29 01:30:40;;;;;;;;;;;;;;;21.99;61.88;100441.44;2076873;28;19917;-40
2021/09/29 01:31:42;;;;;;;;;;;;;;;21.98;61.83;100451.56;2074277;28;19913;-39
2021/09/29 01:32:42;;;;;;;;;;;;;;;21.99;61.69;100452.41;2076118;28;19921;-45
2021/09/29 01:33:44;;;;;;;;;;;;;;;21.99;61.85;100449.69;2071082;28;20028;-40
2021/09/29 01:34:45;;;;;;;;;;;;;;;21.99;61.67;100452.41;2071068;28;19921;-39
2021/09/29 01:35:46;;;;;;;;;;;;;;;21.98;61.72;100454.31;2074573;28;19974;-40
2021/09/29 01:36:46;;;;;;;;;;;;;;;21.98;61.71;100446.06;2071474;28;20684;-40
2021/09/29 01:37:48;;;;;;;;;;;;;;;21.99;61.96;100444.19;2069686;28;20024;-40
2021/09/29 01:38:55;;;;;;;;;;;;;;;21.98;61.72;100443.31;2072547;28;19920;-40
2021/09/29 01:39:56;;;;;;;;;;;;;;;21.99;61.72;100452.41;2069670;28;20571;-40
2021/09/29 01:40:56;;;;;;;;;;;;;;;21.98;61.95;100454.31;2073987;28;19940;-40
2021/09/29 01:41:56;;;;;;;;;;;;;;;21.99;62.09;100460.66;2074655;28;19972;-40
2021/09/29 01:42:57;;;;;;;;;;;;;;;21.98;61.76;100461.69;2075125;28;19932;-40
2021/09/29 01:43:58;;;;;;;;;;;;;;;21.99;61.96;100460.66;2072023;28;20731;-40
2021/09/29 01:44:58;;;;;;;;;;;;;;;21.98;61.92;100461.69;2073403;28;20319;-40
2021/09/29 01:45:59;;;;;;;;;;;;;;;21.98;61.76;100462.53;2074029;28;19951;-40
2021/09/29 01:47:00;;;;;;;;;;;;;;;21.98;61.82;100461.69;2075529;28;20805;-40
2021/09/29 01:48:00;;;;;;;;;;;;;;;21.99;62.12;100463.41;2076149;28;19927;-40
2021/09/29 01:49:13;;;;;;;;;;;;;;;21.98;61.74;100467.19;2075616;28;19913;-40
2021/09/29 01:50:14;;;;;;;;;;;;;;;21.98;61.73;100458.94;2070974;28;20120;-40
2021/09/29 01:51:14;;;;;;;;;;;;;;;21.97;61.76;100460.81;2075545;28;20026;-39
2021/09/29 01:52:19;;;;;;;;;;;;;;;21.98;61.76;100462.53;2073143;28;20040;-39
2021/09/29 01:53:20;;;;;;;;;;;;;;;21.98;61.85;100461.69;2075582;28;19909;-40
2021/09/29 01:54:23;;;;;;;;;;;;;;;21.97;61.89;100460.81;2071861;28;19968;-40
2021/09/29 01:55:24;;;;;;;;;;;;;;;21.98;61.74;100462.53;2070043;28;20334;-40
2021/09/29 01:56:25;;;;;;;;;;;;;;;21.97;62.02;100466.28;2069414;28;19917;-40
2021/09/29 01:57:25;;;;;;;;;;;;;;;21.98;61.72;100467.19;2073391;28;20007;-40
2021/09/29 01:58:29;;;;;;;;;;;;;;;21.97;61.82;100454.47;2069738;28;19960;-39
2021/09/29 01:59:29;;;;;;;;;;;;;;;21.98;62.04;100467.19;2069705;28;20067;-40
2021/09/29 02:00:30;;;;;;;;;;;;;;;21.97;61.75;100469.03;2075993;28;19967;-40
2021/09/29 02:01:34;;;;;;;;;;;;;;;21.97;61.83;100470.94;2075797;28;19944;-40
2021/09/29 02:02:38;;;;;;;;;;;;;;;21.97;61.85;100473.66;2072448;28;19921;-40
2021/09/29 02:03:42;;;;;;;;;;;;;;;21.97;62.00;100465.44;2069104;28;20650;-40
2021/09/29 02:04:46;;;;;;;;;;;;;;;21.96;61.99;100464.59;2066131;28;20046;-40
2021/09/29 02:05:48;;;;;;;;;;;;;;;21.97;61.73;100465.44;2065661;28;19921;-40
2021/09/29 02:06:49;;;;;;;;;;;;;;;21.97;61.84;100470.94;2069467;28;19928;-40
2021/09/29 02:07:50;;;;;;;;;;;;;;;21.97;61.94;100465.44;2071382;28;19917;-40
2021/09/29 02:08:50;;;;;;;;;;;;;;;21.97;61.84;100465.44;2071973;28;19913;-40
2021/09/29 02:09:51;;;;;;;;;;;;;;;21.96;61.89;100458.25;2072995;28;19940;-39
2021/09/29 02:10:52;;;;;;;;;;;;;;;21.97;61.86;100468.19;2065370;28;19927;-40
2021/09/29 02:11:53;;;;;;;;;;;;;;;21.96;61.96;100459.09;2068758;28;19924;-39
2021/09/29 02:12:54;;;;;;;;;;;;;;;21.96;62.11;100452.75;2054964;28;20337;-39
2021/09/29 02:13:54;;;;;;;;;;;;;;;21.95;61.91;100456.50;2057424;28;19921;-39
2021/09/29 02:14:54;;;;;;;;;;;;;;;21.96;61.94;100453.59;2075814;28;19916;-40
2021/09/29 02:15:55;;;;;;;;;;;;;;;21.96;62.00;100453.59;2064702;28;19987;-39
2021/09/29 02:16:56;;;;;;;;;;;;;;;21.95;62.00;100451.00;2065364;28;19943;-40
2021/09/29 02:17:56;;;;;;;;;;;;;;;21.95;61.94;100457.38;2089175;28;19923;-40
2021/09/29 02:18:57;;;;;;;;;;;;;;;21.96;61.73;100458.25;2076528;28;19923;-40
2021/09/29 02:19:57;;;;;;;;;;;;;;;21.96;61.89;100452.75;2071431;28;20265;-40
2021/09/29 02:20:58;;;;;;;;;;;;;;;21.96;62.00;100460.97;2073797;28;20366;-40
2021/09/29 02:21:58;;;;;;;;;;;;;;;21.96;61.97;100460.97;2073804;28;19909;-40
2021/09/29 02:22:58;;;;;;;;;;;;;;;21.96;62.04;100469.22;2072494;28;19985;-40
2021/09/29 02:23:59;;;;;;;;;;;;;;;21.96;61.88;100464.59;2076853;28;20442;-40
2021/09/29 02:24:59;;;;;;;;;;;;;;;21.96;62.02;100469.22;2072355;28;19908;-40
2021/09/29 02:25:59;;;;;;;;;;;;;;;21.95;61.99;100465.63;2073603;28;20272;-40
2021/09/29 02:27:00;;;;;;;;;;;;;;;21.95;62.03;100467.47;2070676;28;19924;-40
2021/09/29 02:28:00;;;;;;;;;;;;;;;21.96;62.09;100467.31;2071115;28;19924;-40
2021/09/29 02:29:01;;;;;;;;;;;;;;;21.96;62.01;100463.72;2072735;28;19954;-39
2021/09/29 02:30:03;;;;;;;;;;;;;;;21.96;61.81;100474.72;2067615;28;20312;-40
2021/09/29 02:31:04;;;;;;;;;;;;;;;21.95;61.88;100475.72;2067395;28;20355;-40
2021/09/29 02:32:04;;;;;;;;;;;;;;;21.96;61.91;100474.72;2072829;28;19932;-40
2021/09/29 02:33:05;;;;;;;;;;;;;;;21.96;62.14;100474.72;2073775;28;20235;-40
2021/09/29 02:34:07;;;;;;;;;;;;;;;21.95;62.07;100479.34;2075146;28;19916;-40
2021/09/29 02:35:08;;;;;;;;;;;;;;;21.96;61.85;100475.56;2071850;28;20680;-40
2021/09/29 02:36:08;;;;;;;;;;;;;;;21.96;61.86;100480.19;2070491;28;20415;-40
2021/09/29 02:37:09;;;;;;;;;;;;;;;21.96;62.02;100480.19;2074212;28;19917;-40
2021/09/29 02:38:09;;;;;;;;;;;;;;;21.95;62.07;100476.59;2072869;28;20389;-39
2021/09/29 02:39:09;;;;;;;;;;;;;;;21.95;62.10;100468.34;2075616;28;20201;-39
2021/09/29 02:40:10;;;;;;;;;;;;;;;21.95;62.00;100479.34;2072652;28;19921;-40
2021/09/29 02:41:11;;;;;;;;;;;;;;;21.96;61.97;100471.97;2062083;28;20327;-40
2021/09/29 02:42:12;;;;;;;;;;;;;;;21.96;62.01;100474.72;2067050;28;20682;-39
2021/09/29 02:43:12;;;;;;;;;;;;;;;21.95;61.84;100470.22;2071133;28;19927;-40
2021/09/29 02:44:12;;;;;;;;;;;;;;;21.95;61.90;100479.34;2057891;28;20336;-39
2021/09/29 02:45:13;;;;;;;;;;;;;;;21.95;61.76;100472.97;2056065;28;19925;-40
2021/09/29 02:46:13;;;;;;;;;;;;;;;21.95;61.98;100473.84;2079719;28;20266;-40
2021/09/29 02:47:13;;;;;;;;;;;;;;;21.95;61.99;100467.47;2085327;28;19924;-40
2021/09/29 02:48:14;;;;;;;;;;;;;;;21.94;62.12;100472.09;2075718;28;19917;-39
2021/09/29 02:49:14;;;;;;;;;;;;;;;21.94;61.96;100472.09;2074839;28;20012;-39
2021/09/29 02:50:15;;;;;;;;;;;;;;;21.94;62.00;100472.09;2074629;28;20018;-40
2021/09/29 02:51:15;;;;;;;;;;;;;;;21.95;62.26;100472.97;2075402;28;19916;-40
2021/09/29 02:52:15;;;;;;;;;;;;;;;21.94;61.96;100477.59;2075636;28;20276;-40
2021/09/29 02:53:15;;;;;;;;;;;;;;;21.95;61.99;100479.34;2068562;28;20649;-40
2021/09/29 02:54:16;;;;;;;;;;;;;;;21.95;62.13;100475.72;2073701;28;19924;-40
2021/09/29 02:55:16;;;;;;;;;;;;;;;21.94;62.00;100477.59;2069079;28;20326;-39
2021/09/29 02:56:17;;;;;;;;;;;;;;;21.94;61.88;100466.63;2067642;28;19953;-40
2021/09/29 02:57:17;;;;;;;;;;;;;;;21.94;62.10;100474.84;2073913;28;19928;-40
2021/09/29 02:58:18;;;;;;;;;;;;;;;21.95;62.21;100478.44;2073185;28;19920;-40
2021/09/29 02:59:18;;;;;;;;;;;;;;;21.95;62.10;100479.34;2073194;28;19908;-39
2021/09/29 03:00:18;;;;;;;;;;;;;;;21.96;62.21;100477.44;2076381;28;19909;-40
2021/09/29 03:01:19;;;;;;;;;;;;;;;21.95;62.17;100472.97;2072073;28;19912;-40
2021/09/29 03:02:19;;;;;;;;;;;;;;;21.94;62.26;100476.75;2060538;28;19952;-39
2021/09/29 03:03:20;;;;;;;;;;;;;;;21.94;61.98;100479.50;2066880;28;19910;-40
2021/09/29 03:04:20;;;;;;;;;;;;;;;21.94;62.08;100482.22;2073744;28;20079;-40
2021/09/29 03:05:21;;;;;;;;;;;;;;;21.94;62.05;100476.75;2069626;28;19921;-39
2021/09/29 03:06:21;;;;;;;;;;;;;;;21.94;62.10;100487.72;2067906;28;20338;-44
2021/09/29 03:07:21;;;;;;;;;;;;;;;21.94;62.00;100494.06;2075333;28;19932;-39
2021/09/29 03:08:21;;;;;;;;;;;;;;;21.95;61.91;100492.19;2069939;28;19917;-40
2021/09/29 03:09:22;;;;;;;;;;;;;;;21.94;62.13;100484.97;2069209;28;20212;-40
2021/09/29 03:10:22;;;;;;;;;;;;;;;21.94;62.13;100487.72;2076970;28;19935;-40
2021/09/29 03:11:22;;;;;;;;;;;;;;;21.94;62.03;100490.47;2068293;28;19980;-40
2021/09/29 03:12:23;;;;;;;;;;;;;;;21.94;62.01;100493.22;2066921;28;20394;-40
2021/09/29 03:13:23;;;;;;;;;;;;;;;21.94;62.10;100494.06;2069787;28;19972;-40
2021/09/29 03:14:23;;;;;;;;;;;;;;;21.93;62.02;100497.84;2073420;28;19964;-40
2021/09/29 03:15:24;;;;;;;;;;;;;;;21.94;62.19;100493.22;2072749;28;19909;-40
2021/09/29 03:16:24;;;;;;;;;;;;;;;21.93;62.11;100500.59;2075279;28;19917;-39
2021/09/29 03:17:24;;;;;;;;;;;;;;;21.93;62.32;100497.00;2071501;28;19953;-39
2021/09/29 03:18:25;;;;;;;;;;;;;;;21.93;62.25;100502.47;2069265;28;19935;-40
2021/09/29 03:19:26;;;;;;;;;;;;;;;21.93;62.19;100505.22;2066939;28;19943;-40
2021/09/29 03:20:27;;;;;;;;;;;;;;;21.93;62.24;100508.81;2071786;28;19924;-40
2021/09/29 03:21:27;;;;;;;;;;;;;;;21.92;62.10;100496.09;2078316;28;19913;-40
2021/09/29 03:22:27;;;;;;;;;;;;;;;21.94;62.02;100493.22;2075857;28;19932;-39
2021/09/29 03:23:28;;;;;;;;;;;;;;;21.92;62.02;100496.09;2067894;28;19978;-40
2021/09/29 03:24:29;;;;;;;;;;;;;;;21.94;61.88;100498.69;2065702;28;20000;-40
2021/09/29 03:25:29;;;;;;;;;;;;;;;21.93;62.07;100491.50;2073715;28;19940;-40
2021/09/29 03:26:30;;;;;;;;;;;;;;;21.93;62.22;100491.50;2070820;28;19909;-40
2021/09/29 03:27:30;;;;;;;;;;;;;;;21.93;62.00;100497.00;2076486;28;20342;-40
2021/09/29 03:28:30;;;;;;;;;;;;;;;21.93;62.08;100499.72;2070519;28;19913;-40
2021/09/29 03:29:31;;;;;;;;;;;;;;;21.93;62.02;100499.72;2068608;28;20318;-40
2021/09/29 03:30:31;;;;;;;;;;;;;;;21.93;62.19;100497.00;2070286;28;20277;-40
2021/09/29 03:31:31;;;;;;;;;;;;;;;21.93;62.26;100497.00;2072666;28;20026;-40
2021/09/29 03:32:32;;;;;;;;;;;;;;;21.93;62.33;100502.47;2072709;28;19971;-39
2021/09/29 03:33:32;;;;;;;;;;;;;;;21.92;62.01;100507.06;2085201;28;19921;-40
2021/09/29 03:34:32;;;;;;;;;;;;;;;21.93;62.08;100508.81;2080178;28;19952;-40
2021/09/29 03:35:34;;;;;;;;;;;;;;;21.92;62.08;100498.84;2075551;28;19980;-39
2021/09/29 03:36:34;;;;;;;;;;;;;;;21.92;62.08;100500.72;2072718;28;19920;-39
2021/09/29 03:37:35;;;;;;;;;;;;;;;21.92;62.20;100500.72;2074768;28;20254;-39
2021/09/29 03:38:35;;;;;;;;;;;;;;;21.93;62.32;100500.59;2072658;28;19909;-40
2021/09/29 03:39:35;;;;;;;;;;;;;;;21.92;62.32;100501.59;2075272;28;19917;-39
2021/09/29 03:40:36;;;;;;;;;;;;;;;21.92;62.16;100489.75;2076667;28;20302;-40
2021/09/29 03:41:36;;;;;;;;;;;;;;;21.92;62.06;100493.34;2070631;28;19921;-40
2021/09/29 03:42:37;;;;;;;;;;;;;;;21.92;62.17;100492.50;2071659;28;20285;-39
2021/09/29 03:43:37;;;;;;;;;;;;;;;21.92;62.08;100489.75;2074744;28;19956;-40
2021/09/29 03:44:38;;;;;;;;;;;;;;;21.91;62.19;100490.78;2071177;28;20239;-40
2021/09/29 03:45:39;;;;;;;;;;;;;;;21.92;62.09;100489.75;2069725;28;19932;-40
2021/09/29 03:46:39;;;;;;;;;;;;;;;21.92;62.30;100495.25;2072036;28;19919;-42
2021/09/29 03:47:42;;;;;;;;;;;;;;;21.91;62.32;100499.03;2065096;28;20361;-39
2021/09/29 03:48:44;;;;;;;;;;;;;;;21.92;62.00;100492.50;2062394;28;19926;-40
2021/09/29 03:49:44;;;;;;;;;;;;;;;21.91;62.24;100493.53;2071311;28;19939;-40
2021/09/29 03:50:44;;;;;;;;;;;;;;;21.92;62.18;100490.63;2075858;28;19917;-39
2021/09/29 03:51:45;;;;;;;;;;;;;;;21.91;62.18;100494.38;2073130;28;19947;-40
2021/09/29 03:52:45;;;;;;;;;;;;;;;21.91;62.29;100490.78;2073788;28;19984;-40
2021/09/29 03:53:45;;;;;;;;;;;;;;;21.92;62.11;100492.50;2075110;28;20282;-39
2021/09/29 03:54:46;;;;;;;;;;;;;;;21.92;62.27;100495.25;2071136;28;19956;-40
2021/09/29 03:55:46;;;;;;;;;;;;;;;21.92;62.06;100500.72;2075675;28;20706;-40
2021/09/29 03:56:47;;;;;;;;;;;;;;;21.90;62.22;100487.19;2074024;28;19931;-41
2021/09/29 03:57:47;;;;;;;;;;;;;;;21.90;62.22;100492.69;2074000;28;19931;-39
2021/09/29 03:58:47;;;;;;;;;;;;;;;21.92;62.28;100503.47;2074228;28;19916;-40
2021/09/29 03:59:47;;;;;;;;;;;;;;;21.91;62.37;100496.28;2069117;28;20209;-40
2021/09/29 04:00:48;;;;;;;;;;;;;;;21.91;62.31;100493.53;2067470;28;20295;-39
2021/09/29 04:01:48;;;;;;;;;;;;;;;21.91;62.19;100505.38;2075663;28;20884;-40
2021/09/29 04:02:48;;;;;;;;;;;;;;;21.92;62.10;100506.22;2075091;28;19924;-40
2021/09/29 04:03:49;;;;;;;;;;;;;;;21.92;62.38;100506.22;2072545;28;20152;-39
2021/09/29 04:04:49;;;;;;;;;;;;;;;21.91;62.31;100497.13;2071422;28;20317;-40
2021/09/29 04:05:49;;;;;;;;;;;;;;;21.92;62.25;100503.47;2074841;28;20017;-40
2021/09/29 04:06:50;;;;;;;;;;;;;;;21.91;62.22;100501.78;2077384;28;19925;-40
2021/09/29 04:07:50;;;;;;;;;;;;;;;21.90;62.12;100492.69;2076988;28;19998;-40
2021/09/29 04:08:50;;;;;;;;;;;;;;;21.90;62.25;100502.78;2073561;28;20153;-39
2021/09/29 04:09:51;;;;;;;;;;;;;;;21.92;62.24;100506.22;2071781;28;19920;-40
2021/09/29 04:10:51;;;;;;;;;;;;;;;21.91;62.20;100515.50;2073615;28;20307;-39
2021/09/29 04:11:51;;;;;;;;;;;;;;;21.90;62.19;100517.38;2072480;28;19992;-40
2021/09/29 04:12:52;;;;;;;;;;;;;;;21.89;62.16;100514.78;2072868;28;19924;-40
2021/09/29 04:13:52;;;;;;;;;;;;;;;21.91;62.43;100520.97;2076651;28;19943;-39
2021/09/29 04:14:52;;;;;;;;;;;;;;;21.91;62.24;100520.97;2071300;28;19917;-40
2021/09/29 04:15:53;;;;;;;;;;;;;;;21.91;62.39;100518.25;2074247;28;19964;-39
2021/09/29 04:16:53;;;;;;;;;;;;;;;21.89;62.44;100523.00;2074608;28;19920;-40
2021/09/29 04:17:53;;;;;;;;;;;;;;;21.90;62.27;100519.25;2076874;28;19917;-40
2021/09/29 04:18:54;;;;;;;;;;;;;;;21.90;62.25;100524.72;2075396;28;19916;-39
2021/09/29 04:19:54;;;;;;;;;;;;;;;21.90;62.06;100525.63;2070581;28;20257;-40
2021/09/29 04:20:54;;;;;;;;;;;;;;;21.90;62.25;100519.25;2075394;28;19923;-40
2021/09/29 04:21:55;;;;;;;;;;;;;;;21.90;62.27;100524.72;2076440;28;20093;-40
2021/09/29 04:22:56;;;;;;;;;;;;;;;21.90;62.15;100524.72;2073737;28;20446;-40
2021/09/29 04:23:56;;;;;;;;;;;;;;;21.90;62.11;100525.63;2072670;28;19925;-39
2021/09/29 04:24:56;;;;;;;;;;;;;;;21.90;62.06;100535.72;2073293;28;20289;-39
2021/09/29 04:25:58;;;;;;;;;;;;;;;21.89;62.07;100523.00;2063001;28;19917;-40
2021/09/29 04:26:59;;;;;;;;;;;;;;;21.90;62.32;100531.09;2067037;28;19925;-39
2021/09/29 04:27:59;;;;;;;;;;;;;;;21.91;62.36;100526.47;2076420;28;20015;-40
2021/09/29 04:28:59;;;;;;;;;;;;;;;21.90;62.41;100535.72;2066510;28;20746;-40
2021/09/29 04:30:00;;;;;;;;;;;;;;;21.89;62.20;100526.63;2064207;28;19979;-40
2021/09/29 04:31:01;;;;;;;;;;;;;;;21.91;62.21;100534.69;2073392;28;19917;-40
2021/09/29 04:32:02;;;;;;;;;;;;;;;21.90;62.24;100530.22;2074923;28;19927;-39
2021/09/29 04:33:02;;;;;;;;;;;;;;;21.89;62.33;100531.25;2067118;28;19960;-39
2021/09/29 04:34:03;;;;;;;;;;;;;;;21.89;62.01;100528.50;2065640;28;20416;-39
2021/09/29 04:35:03;;;;;;;;;;;;;;;21.88;61.76;100527.66;2070504;28;19923;-40
2021/09/29 04:36:04;;;;;;;;;;;;;;;21.89;61.61;100531.25;2073721;28;19913;-40
2021/09/29 04:37:05;;;;;;;;;;;;;;;21.89;61.67;100531.25;2075352;28;19938;-40
2021/09/29 04:38:05;;;;;;;;;;;;;;;21.87;61.73;100525.91;2073712;28;19917;-40
2021/09/29 04:39:06;;;;;;;;;;;;;;;21.88;61.77;100524.91;2074431;28;20168;-40
2021/09/29 04:40:06;;;;;;;;;;;;;;;21.87;61.83;100525.91;2069314;28;20012;-40
2021/09/29 04:41:07;;;;;;;;;;;;;;;21.87;61.92;100525.91;2072895;28;19905;-40
2021/09/29 04:42:08;;;;;;;;;;;;;;;21.88;61.74;100524.91;2069307;28;20437;-45
2021/09/29 04:43:08;;;;;;;;;;;;;;;21.87;61.77;100525.06;2071509;28;20290;-40
2021/09/29 04:44:09;;;;;;;;;;;;;;;21.87;61.78;100525.91;2072445;28;19921;-39
2021/09/29 04:45:09;;;;;;;;;;;;;;;21.86;61.81;100535.19;2075708;28;19916;-40
2021/09/29 04:46:09;;;;;;;;;;;;;;;21.88;61.82;100532.25;2072651;28;19921;-39
2021/09/29 04:47:10;;;;;;;;;;;;;;;21.87;61.62;100531.41;2075655;28;20361;-39
2021/09/29 04:48:10;;;;;;;;;;;;;;;21.87;61.74;100530.53;2075245;28;19921;-40
2021/09/29 04:49:10;;;;;;;;;;;;;;;21.87;61.85;100536.03;2072752;28;19928;-40
2021/09/29 04:50:10;;;;;;;;;;;;;;;21.86;61.60;100524.19;2071116;28;19917;-40
2021/09/29 04:51:11;;;;;;;;;;;;;;;21.87;61.51;100536.03;2063609;28;20272;-40
2021/09/29 04:52:11;;;;;;;;;;;;;;;21.86;61.55;100529.69;2065726;28;19932;-40
2021/09/29 04:53:12;;;;;;;;;;;;;;;21.86;61.55;100534.31;2075520;28;19908;-40
2021/09/29 04:54:12;;;;;;;;;;;;;;;21.87;61.55;100530.53;2073308;28;19947;-40
2021/09/29 04:55:12;;;;;;;;;;;;;;;21.86;61.63;100526.09;2065101;28;19917;-40
2021/09/29 04:56:14;;;;;;;;;;;;;;;21.86;61.54;100534.31;2061671;28;19917;-40
2021/09/29 04:57:14;;;;;;;;;;;;;;;21.86;61.59;100534.31;2071878;28;20190;-40
2021/09/29 04:58:14;;;;;;;;;;;;;;;21.87;61.82;100538.78;2061040;28;19916;-40
2021/09/29 04:59:15;;;;;;;;;;;;;;;21.86;61.58;100543.41;2070485;28;19921;-39
2021/09/29 05:00:15;;;;;;;;;;;;;;;21.86;61.55;100540.66;2077590;28;20339;-40
2021/09/29 05:01:19;;;;;;;;;;;;;;;21.87;61.74;100547.00;2071220;28;19991;-40
2021/09/29 05:02:19;;;;;;;;;;;;;;;21.87;61.83;100547.00;2071587;28;19921;-40
2021/09/29 05:03:20;;;;;;;;;;;;;;;21.87;61.60;100536.88;2077336;28;20373;-40
2021/09/29 05:04:26;;;;;;;;;;;;;;;21.88;61.57;100535.00;2074054;28;19920;-39
2021/09/29 05:05:26;;;;;;;;;;;;;;;21.89;61.81;100543.09;2075507;28;19986;-40
2021/09/29 05:06:28;;;;;;;;;;;;;;;21.88;61.74;100544.13;2068592;28;20216;-39
2021/09/29 05:07:28;;;;;;;;;;;;;;;21.89;61.58;100544.97;2073113;28;20725;-39
2021/09/29 05:08:30;;;;;;;;;;;;;;;21.88;61.88;100538.63;2071705;28;20238;-40
2021/09/29 05:09:30;;;;;;;;;;;;;;;21.89;61.72;100544.97;2065098;28;19924;-40
2021/09/29 05:10:31;;;;;;;;;;;;;;;21.88;61.60;100549.59;2063925;28;19972;-40
2021/09/29 05:11:39;;;;;;;;;;;;;;;21.89;61.71;100551.31;2077037;28;19977;-40
2021/09/29 05:12:39;;;;;;;;;;;;;;;21.89;61.57;100544.97;2070389;28;20486;-40
2021/09/29 05:13:39;;;;;;;;;;;;;;;21.89;61.64;100539.47;2072881;28;19917;-40
2021/09/29 05:14:40;;;;;;;;;;;;;;;21.88;61.86;100545.97;2076108;28;19905;-39